Time;durP1;ratioP1;P1;durP2;ratioP2;P2;SDS_P1;SDS_P2;PMS_P1;PMS_P2;Temp;Humidity;BMP_temperature;BMP_pressure;BME280_temperature;BME280_humidity;BME280_pressure;Samples;Min_cycle;Max_cycle;Signal;HPM_P1;HPM_P2
2022/04/22 00:01:31;;;;;;;9.50;2.85;;;;;;;9.26;56.96;99725.34;6281395;22;20010;-72
2022/04/22 00:03:57;;;;;;;3.65;2.13;;;;;;;9.16;57.14;99720.72;6312138;22;20010;-72
2022/04/22 00:06:23;;;;;;;3.05;1.83;;;;;;;9.06;56.39;99715.25;6309627;22;20077;-74
2022/04/22 00:08:49;;;;;;;3.25;1.88;;;;;;;9.10;56.95;99719.09;6281144;22;20007;-71
2022/04/22 00:11:29;;;;;;;8.30;1.90;;;;;;;8.97;57.44;99708.72;6308604;22;20010;-72
2022/04/22 00:14:04;;;;;;;3.00;2.03;;;;;;;8.99;57.90;99710.06;6287664;22;20003;-73
2022/04/22 00:16:31;;;;;;;2.65;1.80;;;;;;;8.97;57.81;99708.72;6282885;22;20410;-70
2022/04/22 00:19:00;;;;;;;2.58;1.98;;;;;;;8.97;57.87;99704.09;6309266;22;20361;-71
2022/04/22 00:21:28;;;;;;;2.95;1.92;;;;;;;9.00;57.47;99710.91;6284316;22;20518;-74
2022/04/22 00:23:54;;;;;;;7.57;2.40;;;;;;;8.97;57.85;99695.09;6311714;22;20006;-75
2022/04/22 00:26:20;;;;;;;3.40;1.65;;;;;;;8.96;57.99;99698.91;6312012;22;20435;-73
2022/04/22 00:28:48;;;;;;;4.50;2.05;;;;;;;8.88;57.71;99698.38;6311034;22;20027;-73
2022/04/22 00:31:16;;;;;;;3.20;2.00;;;;;;;8.84;57.73;99691.81;6311515;22;20007;-74
2022/04/22 00:33:42;;;;;;;2.95;1.80;;;;;;;8.94;57.60;99703.81;6280600;22;20004;-75
2022/04/22 00:36:07;;;;;;;4.88;2.30;;;;;;;8.82;57.66;99694.00;6227831;22;20416;-74
2022/04/22 00:38:34;;;;;;;2.60;1.85;;;;;;;8.64;58.34;99687.16;6277141;22;20098;-73
2022/04/22 00:40:59;;;;;;;4.53;2.35;;;;;;;8.68;58.44;99701.06;6274966;22;20071;-71
2022/04/22 00:43:27;;;;;;;2.83;1.90;;;;;;;8.64;58.59;99698.06;6303021;22;20018;-73
2022/04/22 00:45:54;;;;;;;5.20;2.28;;;;;;;8.61;59.16;99681.44;6305838;22;20059;-73
2022/04/22 00:48:23;;;;;;;2.33;1.70;;;;;;;8.56;59.20;99674.91;6253874;22;20056;-73
2022/04/22 00:50:51;;;;;;;4.78;2.30;;;;;;;8.67;58.36;99696.72;6281706;22;20030;-73
2022/04/22 00:53:17;;;;;;;3.58;1.70;;;;;;;8.60;59.09;99696.16;6313920;22;20042;-73
2022/04/22 00:55:44;;;;;;;4.97;2.15;;;;;;;8.51;59.77;99688.53;6317047;22;20034;-73
2022/04/22 00:58:10;;;;;;;3.78;2.22;;;;;;;8.46;58.88;99691.22;6294036;22;19999;-69
2022/04/22 01:00:36;;;;;;;3.80;1.70;;;;;;;8.41;59.80;99693.09;6312720;22;20007;-72
2022/04/22 01:03:02;;;;;;;5.82;2.08;;;;;;;8.43;59.95;99686.28;6310885;22;20007;-73
2022/04/22 01:10:57;;;;;;;5.43;1.92;;;;;;;8.23;59.61;99683.53;6310113;22;20042;-72
2022/04/22 01:13:23;;;;;;;4.53;2.35;;;;;;;8.23;59.30;99688.97;6304646;22;20007;-72
2022/04/22 01:15:49;;;;;;;3.42;2.15;;;;;;;8.20;60.80;99677.50;6312047;22;20059;-72
2022/04/22 01:18:15;;;;;;;4.03;2.30;;;;;;;8.16;60.45;99681.88;6311479;22;20057;-72
2022/04/22 01:20:41;;;;;;;4.13;2.40;;;;;;;8.16;60.47;99668.25;6282529;22;20007;-72
2022/04/22 01:23:06;;;;;;;4.82;2.22;;;;;;;8.13;60.45;99674.25;6284517;22;20443;-72
2022/04/22 01:25:32;;;;;;;5.13;2.60;;;;;;;8.04;60.32;99670.41;6306769;22;20003;-72
2022/04/22 01:28:00;;;;;;;3.60;2.17;;;;;;;8.04;60.72;99665.78;6281398;22;20108;-73
2022/04/22 01:30:26;;;;;;;3.72;2.40;;;;;;;8.07;60.79;99667.13;6281247;22;20023;-72
2022/04/22 01:32:52;;;;;;;5.28;2.63;;;;;;;8.00;61.18;99672.00;6311762;22;20049;-73
2022/04/22 01:35:19;;;;;;;4.18;2.63;;;;;;;7.83;61.16;99672.25;6281279;22;20007;-73
2022/04/22 01:37:45;;;;;;;4.85;3.10;;;;;;;7.73;62.16;99667.56;6315804;22;20026;-73
2022/04/22 01:40:11;;;;;;;8.18;3.20;;;;;;;7.60;62.23;99663.41;6289189;22;19999;-73
2022/04/22 01:42:40;;;;;;;4.93;2.78;;;;;;;7.53;61.95;99662.03;6286058;22;20033;-73
2022/04/22 01:45:07;;;;;;;6.13;3.28;;;;;;;7.41;63.42;99665.78;6312951;22;20011;-73
2022/04/22 01:47:33;;;;;;;7.10;3.20;;;;;;;7.32;63.07;99657.28;6287143;22;20010;-73
2022/04/22 01:49:58;;;;;;;4.68;3.30;;;;;;;7.28;64.11;99660.81;6281628;22;20011;-75
2022/04/22 01:52:24;;;;;;;5.68;2.97;;;;;;;7.23;64.18;99648.00;6283266;22;20004;-73
2022/04/22 01:54:51;;;;;;;7.40;3.53;;;;;;;7.20;63.54;99648.53;6311359;22;20007;-73
2022/04/22 01:57:17;;;;;;;4.32;2.92;;;;;;;7.07;64.17;99640.84;6312263;22;20086;-72
2022/04/22 01:59:44;;;;;;;6.13;3.70;;;;;;;6.99;64.23;99642.13;6306474;22;20090;-70
2022/04/22 02:02:10;;;;;;;6.93;3.17;;;;;;;6.93;64.70;99638.53;6305879;22;19999;-70
2022/04/22 02:04:36;;;;;;;5.57;3.17;;;;;;;6.89;65.35;99642.06;6301389;22;20007;-70
2022/04/22 02:07:01;;;;;;;4.65;3.17;;;;;;;6.77;65.56;99636.81;6301516;22;20029;-70
2022/04/22 02:09:27;;;;;;;5.00;3.08;;;;;;;6.69;66.02;99635.38;6274850;22;20026;-70
2022/04/22 02:11:53;;;;;;;8.40;3.05;;;;;;;6.60;65.55;99631.50;6279023;22;20418;-70
2022/04/22 02:14:19;;;;;;;4.55;3.15;;;;;;;6.53;66.13;99628.19;6277859;22;20030;-69
2022/04/22 02:16:44;;;;;;;5.13;3.03;;;;;;;6.52;66.34;99627.38;6283033;22;19999;-69
2022/04/22 02:19:10;;;;;;;6.63;3.65;;;;;;;6.52;66.83;99627.38;6311205;22;20023;-69
2022/04/22 02:21:35;;;;;;;5.03;3.10;;;;;;;6.60;65.82;99628.78;6279222;22;20011;-70
2022/04/22 02:24:01;;;;;;;6.70;3.55;;;;;;;6.59;66.30;99627.97;6307234;22;20007;-69
2022/04/22 02:26:26;;;;;;;6.03;3.28;;;;;;;6.54;65.84;99632.53;6280380;22;20038;-70
2022/04/22 02:28:52;;;;;;;5.15;3.25;;;;;;;6.45;66.11;99635.75;6304767;22;20165;-69
2022/04/22 02:31:18;;;;;;;5.25;3.22;;;;;;;6.42;66.49;99625.38;6282633;22;20030;-70
2022/04/22 02:33:44;;;;;;;7.78;2.63;;;;;;;6.39;66.14;99623.16;6306587;22;20081;-70
2022/04/22 02:36:10;;;;;;;3.95;3.03;;;;;;;6.33;67.13;99624.22;6298574;22;20094;-70
2022/04/22 02:38:36;;;;;;;7.43;3.15;;;;;;;6.32;67.15;99628.00;6300914;22;20461;-70
2022/04/22 02:46:30;;;;;;;5.10;3.40;;;;;;;6.26;67.92;99618.16;6311117;22;20395;-72
2022/04/22 02:48:58;;;;;;;5.07;3.00;;;;;;;6.23;68.13;99619.50;6282081;22;20232;-72
2022/04/22 02:51:24;;;;;;;5.90;2.83;;;;;;;6.19;68.04;99612.13;6306572;22;20531;-73
2022/04/22 02:53:50;;;;;;;7.65;3.78;;;;;;;6.24;68.41;99617.63;6308388;22;20013;-72
2022/04/22 02:56:18;;;;;;;6.88;3.30;;;;;;;6.17;67.60;99601.53;6285526;22;20380;-72
2022/04/22 02:58:44;;;;;;;6.70;3.60;;;;;;;6.26;68.16;99612.72;6310606;22;20118;-71
2022/04/22 03:01:10;;;;;;;5.82;3.67;;;;;;;6.23;67.65;99602.41;6309163;22;20007;-70
2022/04/22 03:03:35;;;;;;;6.45;3.58;;;;;;;6.28;67.67;99613.31;6283628;22;20309;-71
2022/04/22 03:06:02;;;;;;;6.32;3.08;;;;;;;6.31;67.80;99612.78;6258542;22;20014;-72
2022/04/22 03:08:27;;;;;;;4.22;2.97;;;;;;;6.26;68.23;99599.16;6254362;22;20018;-72
2022/04/22 03:10:53;;;;;;;5.90;3.35;;;;;;;6.31;68.05;99599.22;6252905;22;20007;-72
2022/04/22 03:13:18;;;;;;;6.78;3.30;;;;;;;6.28;68.18;99595.13;6311313;22;20371;-72
2022/04/22 03:15:44;;;;;;;7.05;3.83;;;;;;;6.33;68.75;99601.69;6258832;22;20007;-72
2022/04/22 03:18:10;;;;;;;8.32;3.80;;;;;;;6.26;68.80;99599.16;6283966;22;20015;-73
2022/04/22 03:20:36;;;;;;;8.25;3.60;;;;;;;6.24;68.97;99604.03;6281948;22;20059;-73
2022/04/22 03:23:01;;;;;;;10.00;4.00;;;;;;;6.18;69.53;99599.66;6285154;22;19999;-72
2022/04/22 03:25:27;;;;;;;8.85;3.70;;;;;;;6.15;69.87;99590.13;6311109;22;20329;-73
2022/04/22 03:27:52;;;;;;;7.13;3.90;;;;;;;6.13;70.02;99596.88;6283411;22;20027;-72
2022/04/22 03:30:18;;;;;;;9.20;3.53;;;;;;;6.21;69.62;99599.13;6283830;22;20007;-71
2022/04/22 03:32:44;;;;;;;6.45;3.63;;;;;;;6.17;69.93;99595.28;6282412;22;20094;-72
2022/04/22 03:35:10;;;;;;;5.65;3.20;;;;;;;6.16;69.00;99591.72;6311014;22;20004;-72
2022/04/22 03:37:35;;;;;;;6.55;3.80;;;;;;;6.10;69.34;99590.88;6283959;22;20011;-72
2022/04/22 03:40:03;;;;;;;5.68;3.53;;;;;;;6.05;69.41;99582.69;6287441;22;20032;-73
2022/04/22 03:42:28;;;;;;;8.07;3.35;;;;;;;6.09;69.55;99591.16;6281989;22;19999;-72
2022/04/22 03:44:59;;;;;;;5.15;3.17;;;;;;;6.09;70.16;99583.81;6284813;22;20437;-72
2022/04/22 03:47:24;;;;;;;13.60;3.70;;;;;;;6.10;69.88;99588.19;6282271;22;20018;-72
2022/04/22 03:49:50;;;;;;;7.00;4.03;;;;;;;6.13;69.93;99584.09;6285208;22;20329;-73
2022/04/22 03:52:15;;;;;;;7.63;3.45;;;;;;;6.15;70.35;99583.84;6278374;22;20026;-72
2022/04/22 03:54:41;;;;;;;8.82;3.90;;;;;;;6.19;69.88;99590.41;6277448;22;20436;-71
2022/04/22 03:59:54;;;;;;;6.35;3.47;;;;;;;6.25;70.44;99583.94;6311760;22;20034;-71
2022/04/22 04:02:20;;;;;;;6.63;4.30;;;;;;;6.25;69.96;99578.50;6283167;22;20076;-71
2022/04/22 04:04:45;;;;;;;11.00;4.40;;;;;;;6.24;70.80;99577.69;6285880;22;20031;-72
2022/04/22 04:07:11;;;;;;;7.82;4.15;;;;;;;6.29;70.36;99579.63;6310627;22;19999;-72
2022/04/22 04:17:49;;;;;;;11.20;4.68;;;;;;;6.51;70.84;99571.38;6264742;22;20098;-71
2022/04/22 04:23:17;;;;;;;12.27;4.97;;;;;;;6.67;71.07;99569.59;6288258;22;20037;-73
2022/04/22 04:25:47;;;;;;;6.53;4.32;;;;;;;6.69;70.72;99566.63;6284170;22;20003;-72
2022/04/22 04:28:15;;;;;;;12.57;4.47;;;;;;;6.63;70.19;99557.66;6310863;22;20685;-71
2022/04/22 04:30:41;;;;;;;7.15;4.10;;;;;;;6.61;71.11;99567.94;6258510;22;20668;-71
2022/04/22 04:33:07;;;;;;;11.45;4.95;;;;;;;6.64;71.46;99564.69;6282655;22;20007;-72
2022/04/22 04:35:34;;;;;;;9.85;5.05;;;;;;;6.60;71.68;99569.00;6308601;22;20008;-72
2022/04/22 04:38:00;;;;;;;13.80;4.60;;;;;;;6.57;71.58;99562.22;6308515;22;20030;-72
2022/04/22 04:40:25;;;;;;;13.15;4.65;;;;;;;6.56;72.15;99565.19;6310884;22;20010;-71
2022/04/22 04:42:54;;;;;;;10.35;4.97;;;;;;;6.62;71.67;99566.88;6279814;22;20007;-71
2022/04/22 04:45:20;;;;;;;12.32;4.70;;;;;;;6.71;72.16;99559.84;6309906;22;20011;-72
2022/04/22 04:47:46;;;;;;;10.13;5.57;;;;;;;6.87;72.01;99568.13;6312962;22;20033;-72
2022/04/22 04:50:12;;;;;;;9.50;4.55;;;;;;;6.93;71.94;99556.19;6284770;22;20006;-73
2022/04/22 04:52:39;;;;;;;14.07;5.20;;;;;;;7.04;71.08;99557.06;6313993;22;20011;-72
2022/04/22 04:55:06;;;;;;;6.43;4.05;;;;;;;7.02;71.70;99554.59;6282785;22;20034;-72
2022/04/22 04:57:32;;;;;;;7.68;4.93;;;;;;;7.07;71.32;99554.66;6310304;22;20019;-72
2022/04/22 04:59:57;;;;;;;9.10;5.10;;;;;;;7.14;71.72;99547.06;6256719;22;20022;-72
2022/04/22 05:02:22;;;;;;;9.48;5.05;;;;;;;7.29;71.09;99559.09;6256535;22;20384;-71
2022/04/22 05:04:48;;;;;;;9.65;5.07;;;;;;;7.39;71.64;99542.81;6282170;22;20007;-72
2022/04/22 05:07:13;;;;;;;15.05;5.93;;;;;;;7.53;71.26;99548.56;6259094;22;20072;-72
2022/04/22 05:09:39;;;;;;;10.45;5.07;;;;;;;7.66;71.06;99537.16;6281538;22;20025;-72
2022/04/22 05:12:05;;;;;;;10.52;5.93;;;;;;;7.77;70.39;99542.63;6283827;22;20011;-72
2022/04/22 05:14:30;;;;;;;10.73;6.32;;;;;;;7.92;69.66;99539.16;6307786;22;20026;-71
2022/04/22 05:16:56;;;;;;;9.90;5.45;;;;;;;8.02;70.12;99542.69;6281855;22;20084;-72
2022/04/22 05:19:22;;;;;;;8.60;5.55;;;;;;;8.06;69.28;99545.72;6310550;22;20007;-72
2022/04/22 05:21:48;;;;;;;9.93;5.45;;;;;;;8.10;69.49;99546.78;6281585;22;20003;-72
2022/04/22 05:24:13;;;;;;;6.25;4.60;;;;;;;8.13;69.27;99543.53;6309050;22;20003;-72
2022/04/22 05:26:39;;;;;;;8.35;4.82;;;;;;;8.14;69.79;99533.44;6307887;22;20402;-72
2022/04/22 05:29:05;;;;;;;10.95;5.53;;;;;;;8.19;69.50;99539.72;6258198;22;20026;-71
2022/04/22 05:34:14;;;;;;;15.85;5.53;;;;;;;8.37;69.10;99543.00;6286840;22;20045;-72
2022/04/22 05:36:39;;;;;;;12.25;6.07;;;;;;;8.45;69.59;99553.34;6312713;22;20007;-72
2022/04/22 05:39:08;;;;;;;8.75;5.38;;;;;;;8.54;69.07;99540.84;6285042;22;20015;-73
2022/04/22 05:41:35;;;;;;;11.32;6.35;;;;;;;8.67;68.69;99544.06;6316073;22;20007;-73
2022/04/22 05:44:04;;;;;;;15.40;6.22;;;;;;;8.86;68.65;99547.03;6310606;22;20007;-72
2022/04/22 05:46:29;;;;;;;9.23;5.05;;;;;;;8.99;68.15;99545.66;6311329;22;20056;-73
2022/04/22 05:48:55;;;;;;;11.48;6.07;;;;;;;9.08;67.66;99553.00;6285749;22;20070;-71
2022/04/22 05:51:20;;;;;;;8.43;5.25;;;;;;;9.14;67.25;99548.34;6285761;22;20465;-73
2022/04/22 05:53:48;;;;;;;14.15;6.43;;;;;;;9.25;67.15;99544.47;6283726;22;20022;-73
2022/04/22 05:56:13;;;;;;;11.30;5.90;;;;;;;9.31;67.03;99541.72;6287144;22;20007;-73
2022/04/22 05:58:39;;;;;;;9.43;6.18;;;;;;;9.36;67.45;99537.06;6285886;22;20263;-73
2022/04/22 06:01:04;;;;;;;9.65;5.32;;;;;;;9.44;66.83;99541.13;6311740;22;20007;-72
2022/04/22 06:03:30;;;;;;;17.52;6.88;;;;;;;9.54;67.30;99546.53;6311111;22;20062;-72
2022/04/22 06:05:56;;;;;;;11.32;5.97;;;;;;;9.65;66.87;99549.19;6284970;22;20018;-73
2022/04/22 06:11:06;;;;;;;15.45;6.25;;;;;;;9.75;66.62;99543.69;6288738;22;20085;-72
2022/04/22 06:13:31;;;;;;;9.10;5.40;;;;;;;9.79;65.81;99544.75;6285199;22;19999;-73
2022/04/22 06:15:57;;;;;;;10.93;6.10;;;;;;;9.81;65.65;99544.47;6285984;22;20018;-73
2022/04/22 06:18:23;;;;;;;11.25;6.00;;;;;;;9.87;66.00;99544.16;6314010;22;20023;-72
2022/04/22 06:20:50;;;;;;;10.68;6.13;;;;;;;9.96;65.75;99537.00;6315487;22;20026;-74
2022/04/22 06:23:15;;;;;;;12.93;6.00;;;;;;;10.16;65.79;99540.66;6314514;22;20011;-70
2022/04/22 06:25:45;;;;;;;7.95;4.85;;;;;;;10.30;65.14;99538.94;6311336;22;20062;-69
2022/04/22 06:28:15;;;;;;;7.60;4.70;;;;;;;10.42;64.94;99545.97;6232519;22;20038;-70
2022/04/22 06:30:41;;;;;;;11.25;5.72;;;;;;;10.55;64.54;99547.22;6284207;22;20029;-69
2022/04/22 06:33:06;;;;;;;7.65;4.30;;;;;;;10.53;64.54;99544.78;6310405;22;20007;-69
2022/04/22 06:35:33;;;;;;;9.43;5.20;;;;;;;10.54;63.87;99540.97;6311156;22;20056;-71
2022/04/22 06:38:01;;;;;;;13.25;5.88;;;;;;;10.51;64.29;99541.50;6312600;22;20076;-70
2022/04/22 06:45:59;;;;;;;14.13;6.45;;;;;;;10.43;64.53;99523.00;6265778;22;20017;-69
2022/04/22 06:48:34;;;;;;;13.98;6.15;;;;;;;10.53;64.48;99533.84;6232400;22;20011;-69
2022/04/22 06:51:01;;;;;;;8.82;5.85;;;;;;;10.69;64.19;99530.97;6261595;22;20011;-70
2022/04/22 06:53:27;;;;;;;10.23;6.13;;;;;;;10.90;64.09;99532.38;6283420;22;20003;-70
2022/04/22 06:55:54;;;;;;;16.33;6.88;;;;;;;10.98;63.04;99523.56;6287428;22;20003;-72
2022/04/22 06:58:30;;;;;;;10.27;6.30;;;;;;;11.12;62.59;99525.59;6287587;22;20144;-73
2022/04/22 07:01:14;;;;;;;10.73;6.68;;;;;;;11.25;62.90;99527.63;6316519;22;19999;-75
2022/04/22 07:03:58;;;;;;;19.17;7.40;;;;;;;11.31;62.51;99531.09;6292040;22;19999;-73
2022/04/22 07:06:24;;;;;;;11.02;6.85;;;;;;;11.27;62.45;99522.69;6284468;22;20437;-70
2022/04/22 07:08:50;;;;;;;17.60;7.68;;;;;;;11.09;62.70;99517.97;6285388;22;20014;-69
2022/04/22 07:11:26;;;;;;;12.82;7.82;;;;;;;10.95;63.61;99515.94;6260416;22;20027;-71
2022/04/22 07:14:00;;;;;;;14.70;8.05;;;;;;;10.93;64.24;99515.38;6285351;22;20007;-71
2022/04/22 07:16:34;;;;;;;15.10;8.15;;;;;;;10.90;64.27;99509.69;6285271;22;20037;-72
2022/04/22 07:19:44;;;;;;;13.25;8.23;;;;;;;10.82;64.51;99502.97;6309039;22;20096;-70
2022/04/22 07:22:10;;;;;;;16.15;9.00;;;;;;;10.72;65.31;99513.97;6277273;22;20042;-71
2022/04/22 07:24:36;;;;;;;13.90;9.45;;;;;;;10.66;65.61;99507.78;6311469;22;20015;-71
2022/04/22 07:27:02;;;;;;;21.30;9.63;;;;;;;10.75;65.24;99514.22;6313933;22;20011;-71
2022/04/22 07:29:35;;;;;;;16.83;9.40;;;;;;;10.99;65.21;99517.00;6310204;22;20026;-71
2022/04/22 07:32:01;;;;;;;25.38;10.48;;;;;;;11.26;64.06;99529.25;6311716;22;20015;-69
2022/04/22 07:34:26;;;;;;;20.13;9.95;;;;;;;11.52;63.82;99526.16;6282029;22;20004;-71
2022/04/22 07:36:52;;;;;;;24.23;11.65;;;;;;;11.67;63.31;99522.44;6282425;22;20015;-71
2022/04/22 07:39:18;;;;;;;21.88;9.70;;;;;;;11.88;62.67;99512.81;6235584;22;20021;-71
2022/04/22 07:41:46;;;;;;;16.23;10.55;;;;;;;12.09;62.16;99506.22;6259900;22;20004;-71
2022/04/22 07:47:08;;;;;;;17.88;10.63;;;;;;;12.76;60.53;99508.63;6289913;22;20334;-70
2022/04/22 07:49:34;;;;;;;17.25;10.38;;;;;;;12.95;59.94;99502.25;6311788;22;20007;-71
2022/04/22 07:51:59;;;;;;;19.02;10.35;;;;;;;13.12;59.70;99518.09;6273192;22;20045;-71
2022/04/22 07:54:34;;;;;;;25.70;11.73;;;;;;;13.19;59.40;99507.53;6312248;22;20014;-70
2022/04/22 07:56:59;;;;;;;;;;;;;;;13.19;59.50;99515.78;6287175;22;20006;-71
2022/04/22 07:59:26;;;;;;;17.77;11.15;;;;;;;13.09;59.56;99520.31;6283817;22;20606;-72
2022/04/22 08:01:54;;;;;;;16.98;11.00;;;;;;;12.96;59.64;99512.91;6285481;22;20025;-72
2022/04/22 08:04:19;;;;;;;17.67;11.43;;;;;;;12.83;59.68;99520.00;6309635;22;20007;-72
2022/04/22 08:06:45;;;;;;;17.67;11.02;;;;;;;12.76;59.82;99514.09;6288172;22;20048;-74
2022/04/22 08:09:33;;;;;;;20.48;10.45;;;;;;;12.68;60.14;99512.06;6312929;22;20007;-72
2022/04/22 08:12:00;;;;;;;18.60;10.00;;;;;;;12.75;59.83;99529.75;6290593;22;20049;-73
2022/04/22 08:14:27;;;;;;;23.73;11.32;;;;;;;12.79;60.04;99512.69;6313951;22;20029;-74
2022/04/22 08:16:58;;;;;;;18.77;10.65;;;;;;;12.71;59.90;99505.97;6285991;22;20358;-73
2022/04/22 08:20:18;;;;;;;;;;;;;;;;;;;;;
2022/04/22 08:23:24;;;;;;;;;;;;;;;;;;;;;
2022/04/22 08:25:49;;;;;;;20.05;10.00;;;;;;;12.55;60.53;99492.53;6220068;22;20389;-73
2022/04/22 08:28:18;;;;;;;21.45;10.38;;;;;;;12.56;61.00;99524.34;6254984;22;20022;-72
2022/04/22 08:30:43;;;;;;;22.83;10.38;;;;;;;12.45;61.05;99524.81;6258696;22;20480;-72
2022/04/22 08:33:08;;;;;;;20.20;10.27;;;;;;;12.46;61.44;99520.97;6260785;22;20034;-73
2022/04/22 08:35:57;;;;;;;;;;;;;;;;;;;;;
2022/04/22 08:38:25;;;;;;;16.35;9.90;;;;;;;12.57;61.65;99522.41;6313106;22;20030;-74
2022/04/22 08:40:51;;;;;;;17.88;10.75;;;;;;;12.58;61.34;99496.59;6312429;22;20072;-73
2022/04/22 08:43:20;;;;;;;19.98;11.02;;;;;;;12.93;60.77;99508.03;6283545;22;19995;-72
2022/04/22 08:45:45;;;;;;;23.75;11.40;;;;;;;13.21;60.42;99499.78;6311567;22;20046;-73
2022/04/22 08:50:58;;;;;;;15.90;10.20;;;;;;;13.89;58.14;99483.50;6312549;22;20013;-73
2022/04/22 08:53:27;;;;;;;16.77;9.95;;;;;;;14.16;57.05;99485.31;6312085;22;19999;-73
2022/04/22 08:55:57;;;;;;;21.15;9.88;;;;;;;14.31;56.26;99489.66;6311274;22;20006;-72
2022/04/22 08:58:27;;;;;;;23.58;10.80;;;;;;;14.41;56.02;99483.88;6312239;22;20084;-72
2022/04/22 09:00:54;;;;;;;15.25;9.15;;;;;;;14.61;55.64;99478.97;6311275;22;20057;-72
2022/04/22 09:03:20;;;;;;;17.00;9.82;;;;;;;14.90;54.89;99483.16;6282967;22;20409;-73
2022/04/22 09:05:48;;;;;;;20.35;9.05;;;;;;;15.14;54.77;99494.59;6313981;22;20043;-73
2022/04/22 09:08:18;;;;;;;22.52;10.68;;;;;;;15.19;53.32;99482.63;6314047;22;20004;-74
2022/04/22 09:10:44;;;;;;;18.65;9.82;;;;;;;15.08;54.34;99484.03;6286946;22;20386;-75
2022/04/22 09:13:23;;;;;;;18.13;10.10;;;;;;;15.38;53.44;99487.84;6261457;22;20014;-73
2022/04/22 09:18:44;;;;;;;19.75;10.40;;;;;;;16.11;51.12;99476.22;6284281;22;20014;-71
2022/04/22 09:24:24;;;;;;;16.27;9.25;;;;;;;17.35;48.98;99488.50;6271745;22;20125;-72
2022/04/22 09:27:06;;;;;;;19.15;9.60;;;;;;;17.25;48.50;99490.47;6253660;22;20011;-73
2022/04/22 09:29:54;;;;;;;17.65;9.70;;;;;;;17.03;48.62;99468.69;6281979;22;20007;-71
2022/04/22 09:32:24;;;;;;;18.60;8.80;;;;;;;17.25;48.66;99473.91;6226753;22;20080;-73
2022/04/22 09:34:51;;;;;;;16.45;9.05;;;;;;;17.22;48.62;99474.56;6279796;22;20481;-70
2022/04/22 09:42:54;;;;;;;17.83;9.27;;;;;;;17.30;48.82;99474.84;6279624;22;20043;-74
2022/04/22 09:45:20;;;;;;;22.38;9.35;;;;;;;16.96;48.27;99463.66;6226964;22;20007;-72
2022/04/22 09:47:59;;;;;;;21.10;8.98;;;;;;;16.71;49.01;99462.63;6252347;22;20006;-73
2022/04/22 09:50:54;;;;;;;19.30;8.75;;;;;;;16.44;49.67;99467.41;6282802;22;20012;-71
2022/04/22 09:53:33;;;;;;;14.10;7.85;;;;;;;16.25;50.17;99470.50;6283076;22;20008;-72
2022/04/22 09:56:09;;;;;;;17.17;8.63;;;;;;;16.18;49.88;99471.03;6282864;22;20004;-73
2022/04/22 09:58:36;;;;;;;15.60;8.02;;;;;;;16.05;50.33;99466.50;6282389;22;19996;-72
2022/04/22 10:01:06;;;;;;;15.68;7.85;;;;;;;16.08;50.25;99470.53;6256885;22;20753;-73
2022/04/22 10:03:37;;;;;;;16.67;8.13;;;;;;;16.03;50.42;99461.31;6280262;22;20101;-71
2022/04/22 10:06:03;;;;;;;17.77;7.97;;;;;;;16.26;49.78;99454.78;6283739;22;20042;-74
2022/04/22 10:08:32;;;;;;;19.77;7.30;;;;;;;16.84;48.80;99455.25;6256267;22;20390;-73
2022/04/22 10:11:00;;;;;;;18.65;7.38;;;;;;;17.44;46.76;99453.31;6282125;22;20027;-73
2022/04/22 10:13:33;;;;;;;25.20;8.52;;;;;;;17.60;45.91;99445.22;6257152;22;20007;-75
2022/04/22 10:15:59;;;;;;;14.82;7.57;;;;;;;17.56;45.38;99436.78;6285401;22;20019;-75
2022/04/22 10:18:26;;;;;;;14.40;7.00;;;;;;;17.36;45.38;99445.88;6284159;22;20053;-73
2022/04/22 10:20:54;;;;;;;12.40;7.53;;;;;;;17.71;44.47;99442.84;6282667;22;20054;-73
2022/04/22 10:23:20;;;;;;;11.88;6.03;;;;;;;18.75;44.06;99441.00;6224725;22;20074;-73
2022/04/22 10:25:48;;;;;;;17.67;7.85;;;;;;;19.48;41.19;99433.03;6254445;22;20091;-74
2022/04/22 10:28:15;;;;;;;12.80;6.43;;;;;;;22.09;37.73;99420.44;6278668;22;20015;-74
2022/04/22 10:30:43;;;;;;;12.85;6.80;;;;;;;26.06;30.37;99430.53;6230809;22;20008;-73
2022/04/22 10:33:11;;;;;;;11.80;5.93;;;;;;;26.72;28.26;99440.69;6276150;22;20021;-73
2022/04/22 10:35:59;;;;;;;9.23;5.57;;;;;;;27.73;28.58;99454.56;6281975;22;20007;-75
2022/04/22 10:39:05;;;;;;;14.27;5.82;;;;;;;27.59;27.75;99442.19;6284227;22;20082;-74
2022/04/22 10:41:45;;;;;;;13.73;7.13;;;;;;;26.04;28.99;99430.13;6251400;22;20010;-74
2022/04/22 10:47:14;;;;;;;11.85;5.47;;;;;;;25.47;30.21;99425.06;6280688;22;20034;-74
2022/04/22 10:49:44;;;;;;;9.63;4.50;;;;;;;29.11;26.88;99444.13;6253607;22;19996;-74
2022/04/22 10:52:10;;;;;;;10.43;3.83;;;;;;;33.31;22.20;99445.59;6255214;22;20075;-73
2022/04/22 10:54:59;;;;;;;10.13;4.10;;;;;;;37.45;17.49;99444.50;6280292;22;20000;-73
2022/04/22 10:57:58;;;;;;;6.82;3.65;;;;;;;39.00;14.94;99423.66;6280321;22;20367;-73
2022/04/22 11:01:38;;;;;;;8.93;2.42;;;;;;;40.18;13.94;99441.53;6160513;23;20504;-74
2022/04/22 11:19:28;;;;;;;4.63;3.28;;;;;;;26.55;25.03;99423.44;6277046;22;20072;-74
2022/04/22 11:21:58;;;;;;;5.75;3.10;;;;;;;26.15;25.45;99407.75;6280202;22;20014;-74
2022/04/22 11:24:35;;;;;;;5.35;3.17;;;;;;;28.06;23.38;99425.16;6249404;22;20769;-75
2022/04/22 11:27:02;;;;;;;5.88;3.47;;;;;;;27.80;23.83;99427.28;6268825;22;20007;-76
2022/04/22 11:29:28;;;;;;;5.35;3.22;;;;;;;26.86;24.67;99412.63;6271771;22;20007;-74
2022/04/22 11:32:03;;;;;;;4.97;3.25;;;;;;;26.72;25.22;99423.84;6243139;22;20031;-73
2022/04/22 11:34:53;;;;;;;5.00;3.55;;;;;;;26.49;24.82;99433.44;6268564;22;20027;-73
2022/04/22 11:37:21;;;;;;;6.03;3.40;;;;;;;24.53;27.77;99430.72;6269985;22;20000;-73
2022/04/22 11:39:50;;;;;;;6.95;3.15;;;;;;;22.83;29.82;99422.13;6270359;22;20393;-72
2022/04/22 11:42:17;;;;;;;10.30;3.92;;;;;;;21.54;32.33;99414.16;6240973;22;20461;-72
2022/04/22 11:45:02;;;;;;;9.93;4.13;;;;;;;20.67;33.88;99414.09;6269428;22;20034;-73
2022/04/22 11:47:28;;;;;;;6.25;4.60;;;;;;;20.75;34.56;99419.47;6271868;22;20063;-75
2022/04/22 11:49:55;;;;;;;5.75;3.45;;;;;;;20.52;34.57;99424.81;6220964;22;20028;-73
2022/04/22 11:52:26;;;;;;;11.77;3.70;;;;;;;20.40;35.30;99427.69;6269166;22;20070;-73
2022/04/22 11:54:52;;;;;;;6.05;3.47;;;;;;;20.33;35.33;99419.16;6246137;22;20027;-72
2022/04/22 11:57:18;;;;;;;5.25;3.50;;;;;;;20.18;35.69;99417.97;6244758;22;20028;-73
2022/04/22 12:05:32;;;;;;;5.00;3.25;;;;;;;19.93;35.80;99423.66;6242407;22;20418;-74
2022/04/22 12:05:35;;;;;;;8.82;3.72;;;;;;;18.81;38.24;99427.75;6248565;22;20018;-73
2022/04/22 12:08:07;;;;;;;7.78;4.20;;;;;;;18.81;39.05;99424.97;6243279;22;20011;-73
2022/04/22 12:10:34;;;;;;;10.20;3.72;;;;;;;19.05;38.55;99424.19;6245247;22;20007;-71
2022/04/22 12:13:04;;;;;;;6.32;4.00;;;;;;;21.51;35.68;99414.84;6241368;22;20000;-72
2022/04/22 12:15:30;;;;;;;6.88;4.03;;;;;;;23.16;31.78;99417.91;6271662;22;20019;-73
2022/04/22 12:17:57;;;;;;;7.97;3.17;;;;;;;22.86;31.78;99425.38;6268639;22;20418;-73
2022/04/22 12:20:22;;;;;;;14.82;3.75;;;;;;;22.44;32.04;99416.72;6271378;22;20015;-72
2022/04/22 12:22:52;;;;;;;6.28;3.15;;;;;;;22.62;32.38;99405.09;6243370;22;20012;-74
2022/04/22 12:25:20;;;;;;;5.30;3.42;;;;;;;22.23;32.53;99400.38;6269831;22;20595;-73
2022/04/22 12:28:08;;;;;;;5.28;3.58;;;;;;;21.29;33.67;99406.03;6244245;22;20057;-73
2022/04/22 12:30:40;;;;;;;6.05;3.75;;;;;;;20.74;34.92;99395.63;6245723;22;20019;-73
2022/04/22 12:33:15;;;;;;;6.07;3.60;;;;;;;20.56;35.38;99405.50;6243708;22;20034;-74
2022/04/22 12:35:42;;;;;;;6.75;3.08;;;;;;;20.38;35.84;99393.91;6272462;22;20019;-72
2022/04/22 12:38:13;;;;;;;4.63;2.70;;;;;;;20.36;35.91;99402.59;6271069;22;20003;-73
2022/04/22 12:40:49;;;;;;;5.55;3.53;;;;;;;20.34;36.32;99399.38;6243158;22;20062;-73
2022/04/22 12:43:29;;;;;;;9.82;4.15;;;;;;;20.33;36.32;99396.97;6270850;22;19999;-72
2022/04/22 12:58:30;;;;;;;9.10;4.55;;;;;;;18.56;40.19;99364.06;6271625;22;20058;-73
2022/04/22 13:00:56;;;;;;;5.72;3.28;;;;;;;19.57;39.00;99383.78;6270658;22;20000;-73
2022/04/22 13:03:58;;;;;;;8.48;4.07;;;;;;;20.19;37.20;99402.94;6270624;22;20000;-73
2022/04/22 13:06:45;;;;;;;6.45;3.50;;;;;;;20.32;36.71;99398.91;6244786;22;20011;-74
2022/04/22 13:09:12;;;;;;;11.57;4.40;;;;;;;20.30;37.27;99390.16;6291672;22;19999;-74
2022/04/22 13:11:39;;;;;;;5.68;4.07;;;;;;;20.36;36.82;99385.94;6303017;22;20085;-73
2022/04/22 13:14:06;;;;;;;6.63;4.05;;;;;;;20.83;36.05;99380.75;6275726;22;20021;-72